sensor_id;sensor_type;location;lat;lon;timestamp;temperature;humidity
1996;DHT22;38556;47.068;15.408;2023-11-18T00:01:07;9.20;52.50
1996;DHT22;38556;47.068;15.408;2023-11-18T00:03:36;7.90;54.50
1996;DHT22;38556;47.068;15.408;2023-11-18T00:08:31;7.60;56.10
1996;DHT22;38556;47.068;15.408;2023-11-18T00:10:58;7.80;54.00
1996;DHT22;38556;47.068;15.408;2023-11-18T00:13:26;7.10;54.70
1996;DHT22;38556;47.068;15.408;2023-11-18T00:15:53;7.10;55.00
1996;DHT22;38556;47.068;15.408;2023-11-18T00:20:49;7.60;54.90
1996;DHT22;38556;47.068;15.408;2023-11-18T00:23:17;7.90;54.50
1996;DHT22;38556;47.068;15.408;2023-11-18T00:25:45;8.10;54.20
1996;DHT22;38556;47.068;15.408;2023-11-18T00:28:12;8.40;53.80
1996;DHT22;38556;47.068;15.408;2023-11-18T00:30:39;8.80;54.70
1996;DHT22;38556;47.068;15.408;2023-11-18T00:33:06;9.10;54.50
1996;DHT22;38556;47.068;15.408;2023-11-18T00:35:35;9.30;53.70
1996;DHT22;38556;47.068;15.408;2023-11-18T00:38:03;9.50;53.80
1996;DHT22;38556;47.068;15.408;2023-11-18T00:40:30;9.50;54.50
1996;DHT22;38556;47.068;15.408;2023-11-18T00:42:58;9.50;54.40
1996;DHT22;38556;47.068;15.408;2023-11-18T00:45:25;9.40;54.20
1996;DHT22;38556;47.068;15.408;2023-11-18T00:47:53;9.10;54.60
1996;DHT22;38556;47.068;15.408;2023-11-18T00:50:20;9.00;54.30
1996;DHT22;38556;47.068;15.408;2023-11-18T00:52:49;9.10;54.20
1996;DHT22;38556;47.068;15.408;2023-11-18T00:55:16;9.20;54.20
1996;DHT22;38556;47.068;15.408;2023-11-18T00:57:44;8.70;54.00
1996;DHT22;38556;47.068;15.408;2023-11-18T01:00:13;7.60;55.70
1996;DHT22;38556;47.068;15.408;2023-11-18T01:02:42;7.80;55.70
1996;DHT22;38556;47.068;15.408;2023-11-18T01:05:09;7.30;56.50
1996;DHT22;38556;47.068;15.408;2023-11-18T01:07:37;7.70;56.30
1996;DHT22;38556;47.068;15.408;2023-11-18T01:10:06;8.00;54.80
1996;DHT22;38556;47.068;15.408;2023-11-18T01:12:36;7.50;56.00
1996;DHT22;38556;47.068;15.408;2023-11-18T01:15:04;7.90;56.50
1996;DHT22;38556;47.068;15.408;2023-11-18T01:17:31;8.20;54.70
1996;DHT22;38556;47.068;15.408;2023-11-18T01:19:58;7.60;55.90
1996;DHT22;38556;47.068;15.408;2023-11-18T01:22:26;7.80;56.30
1996;DHT22;38556;47.068;15.408;2023-11-18T01:24:55;8.00;56.60
1996;DHT22;38556;47.068;15.408;2023-11-18T01:27:25;8.30;56.80
1996;DHT22;38556;47.068;15.408;2023-11-18T01:29:54;8.50;56.00
1996;DHT22;38556;47.068;15.408;2023-11-18T01:32:21;8.70;54.60
1996;DHT22;38556;47.068;15.408;2023-11-18T01:34:50;8.50;55.10
1996;DHT22;38556;47.068;15.408;2023-11-18T01:37:17;8.60;55.90
1996;DHT22;38556;47.068;15.408;2023-11-18T01:39:47;8.90;56.00
1996;DHT22;38556;47.068;15.408;2023-11-18T01:42:15;9.00;55.70
1996;DHT22;38556;47.068;15.408;2023-11-18T01:44:43;9.10;55.80
1996;DHT22;38556;47.068;15.408;2023-11-18T01:47:10;9.10;54.80
1996;DHT22;38556;47.068;15.408;2023-11-18T01:49:39;9.10;54.90
1996;DHT22;38556;47.068;15.408;2023-11-18T01:52:07;9.10;55.30
1996;DHT22;38556;47.068;15.408;2023-11-18T01:54:37;8.20;56.40
1996;DHT22;38556;47.068;15.408;2023-11-18T01:57:05;8.10;55.90
1996;DHT22;38556;47.068;15.408;2023-11-18T01:59:35;8.30;55.40
1996;DHT22;38556;47.068;15.408;2023-11-18T02:02:05;8.60;55.80
1996;DHT22;38556;47.068;15.408;2023-11-18T02:04:33;8.20;56.20
1996;DHT22;38556;47.068;15.408;2023-11-18T02:07:00;7.90;57.50
1996;DHT22;38556;47.068;15.408;2023-11-18T02:12:10;7.80;57.30
1996;DHT22;38556;47.068;15.408;2023-11-18T02:14:43;7.70;57.00
1996;DHT22;38556;47.068;15.408;2023-11-18T02:17:14;8.00;56.90
1996;DHT22;38556;47.068;15.408;2023-11-18T02:19:45;8.20;55.90
1996;DHT22;38556;47.068;15.408;2023-11-18T02:24:40;8.00;56.90
1996;DHT22;38556;47.068;15.408;2023-11-18T02:27:10;7.90;56.50
1996;DHT22;38556;47.068;15.408;2023-11-18T02:29:41;8.20;56.40
1996;DHT22;38556;47.068;15.408;2023-11-18T02:32:14;8.40;55.60
1996;DHT22;38556;47.068;15.408;2023-11-18T02:34:48;8.50;56.70
1996;DHT22;38556;47.068;15.408;2023-11-18T02:37:20;8.10;56.70
1996;DHT22;38556;47.068;15.408;2023-11-18T02:42:22;8.60;57.50
1996;DHT22;38556;47.068;15.408;2023-11-18T02:44:51;8.70;56.40
1996;DHT22;38556;47.068;15.408;2023-11-18T02:47:25;8.50;56.40
1996;DHT22;38556;47.068;15.408;2023-11-18T02:49:56;8.20;57.60
1996;DHT22;38556;47.068;15.408;2023-11-18T02:52:31;8.60;58.00
1996;DHT22;38556;47.068;15.408;2023-11-18T02:54:59;8.70;57.40
1996;DHT22;38556;47.068;15.408;2023-11-18T02:57:28;9.00;56.10
1996;DHT22;38556;47.068;15.408;2023-11-18T02:59:55;9.10;55.60
1996;DHT22;38556;47.068;15.408;2023-11-18T03:02:24;9.10;58.00
1996;DHT22;38556;47.068;15.408;2023-11-18T03:07:20;9.20;56.60
1996;DHT22;38556;47.068;15.408;2023-11-18T03:09:48;9.30;56.00
1996;DHT22;38556;47.068;15.408;2023-11-18T03:12:15;9.30;57.30
1996;DHT22;38556;47.068;15.408;2023-11-18T03:14:44;9.50;57.30
1996;DHT22;38556;47.068;15.408;2023-11-18T03:17:11;9.70;57.30
1996;DHT22;38556;47.068;15.408;2023-11-18T03:19:39;9.70;57.80
1996;DHT22;38556;47.068;15.408;2023-11-18T03:22:07;9.80;58.20
1996;DHT22;38556;47.068;15.408;2023-11-18T03:24:34;9.80;58.10
1996;DHT22;38556;47.068;15.408;2023-11-18T03:27:02;9.40;57.50
1996;DHT22;38556;47.068;15.408;2023-11-18T03:29:29;9.20;58.30
1996;DHT22;38556;47.068;15.408;2023-11-18T03:31:58;9.20;57.90
1996;DHT22;38556;47.068;15.408;2023-11-18T03:34:25;9.40;58.10
1996;DHT22;38556;47.068;15.408;2023-11-18T03:39:22;9.40;58.50
1996;DHT22;38556;47.068;15.408;2023-11-18T03:41:50;9.50;59.20
1996;DHT22;38556;47.068;15.408;2023-11-18T03:44:18;9.60;58.90
1996;DHT22;38556;47.068;15.408;2023-11-18T03:46:45;9.50;58.90
1996;DHT22;38556;47.068;15.408;2023-11-18T03:49:13;9.30;58.90
1996;DHT22;38556;47.068;15.408;2023-11-18T03:51:41;9.30;59.40
1996;DHT22;38556;47.068;15.408;2023-11-18T03:54:08;9.30;59.40
1996;DHT22;38556;47.068;15.408;2023-11-18T03:56:36;9.20;59.40
1996;DHT22;38556;47.068;15.408;2023-11-18T03:59:03;8.50;60.50
1996;DHT22;38556;47.068;15.408;2023-11-18T04:01:30;7.90;61.70
1996;DHT22;38556;47.068;15.408;2023-11-18T04:03:58;7.20;63.90
1996;DHT22;38556;47.068;15.408;2023-11-18T04:06:27;7.20;64.10
1996;DHT22;38556;47.068;15.408;2023-11-18T04:11:22;7.40;63.70
1996;DHT22;38556;47.068;15.408;2023-11-18T04:13:49;7.90;62.80
1996;DHT22;38556;47.068;15.408;2023-11-18T04:16:16;8.20;62.80
1996;DHT22;38556;47.068;15.408;2023-11-18T04:18:45;8.30;62.80
1996;DHT22;38556;47.068;15.408;2023-11-18T04:21:13;8.60;62.30
1996;DHT22;38556;47.068;15.408;2023-11-18T04:23:43;8.60;61.70
1996;DHT22;38556;47.068;15.408;2023-11-18T04:26:12;8.50;62.10
1996;DHT22;38556;47.068;15.408;2023-11-18T04:28:40;8.60;62.70
1996;DHT22;38556;47.068;15.408;2023-11-18T04:31:07;8.80;62.00
1996;DHT22;38556;47.068;15.408;2023-11-18T04:33:34;8.80;60.70
1996;DHT22;38556;47.068;15.408;2023-11-18T04:36:02;8.00;62.00
1996;DHT22;38556;47.068;15.408;2023-11-18T04:41:00;7.30;64.80
1996;DHT22;38556;47.068;15.408;2023-11-18T04:43:29;7.50;64.10
1996;DHT22;38556;47.068;15.408;2023-11-18T04:48:24;6.20;66.20
1996;DHT22;38556;47.068;15.408;2023-11-18T04:50:51;6.10;67.40
1996;DHT22;38556;47.068;15.408;2023-11-18T04:53:18;6.60;66.70
1996;DHT22;38556;47.068;15.408;2023-11-18T04:55:47;7.00;65.60
1996;DHT22;38556;47.068;15.408;2023-11-18T04:58:15;6.50;65.70
1996;DHT22;38556;47.068;15.408;2023-11-18T05:00:42;6.50;66.10
1996;DHT22;38556;47.068;15.408;2023-11-18T05:03:10;6.60;65.70
1996;DHT22;38556;47.068;15.408;2023-11-18T05:05:38;6.90;65.30
1996;DHT22;38556;47.068;15.408;2023-11-18T05:08:06;6.50;64.60
1996;DHT22;38556;47.068;15.408;2023-11-18T05:10:35;6.90;65.00
1996;DHT22;38556;47.068;15.408;2023-11-18T05:13:03;6.90;64.80
1996;DHT22;38556;47.068;15.408;2023-11-18T05:15:31;7.00;63.70
1996;DHT22;38556;47.068;15.408;2023-11-18T05:17:59;6.50;65.30
1996;DHT22;38556;47.068;15.408;2023-11-18T05:20:26;6.50;65.30
1996;DHT22;38556;47.068;15.408;2023-11-18T05:22:53;6.80;65.10
1996;DHT22;38556;47.068;15.408;2023-11-18T05:25:21;7.10;65.00
1996;DHT22;38556;47.068;15.408;2023-11-18T05:27:50;7.10;65.00
1996;DHT22;38556;47.068;15.408;2023-11-18T05:30:17;6.90;65.00
1996;DHT22;38556;47.068;15.408;2023-11-18T05:32:46;7.20;64.20
1996;DHT22;38556;47.068;15.408;2023-11-18T05:35:13;7.30;63.50
1996;DHT22;38556;47.068;15.408;2023-11-18T05:37:41;7.10;63.50
1996;DHT22;38556;47.068;15.408;2023-11-18T05:40:09;7.00;63.40
1996;DHT22;38556;47.068;15.408;2023-11-18T05:42:41;6.70;64.30
1996;DHT22;38556;47.068;15.408;2023-11-18T05:45:11;6.90;65.20
1996;DHT22;38556;47.068;15.408;2023-11-18T05:50:13;7.60;64.50
1996;DHT22;38556;47.068;15.408;2023-11-18T05:55:09;7.60;64.60
1996;DHT22;38556;47.068;15.408;2023-11-18T05:57:36;7.50;64.30
1996;DHT22;38556;47.068;15.408;2023-11-18T06:00:05;7.50;64.50
1996;DHT22;38556;47.068;15.408;2023-11-18T06:02:34;7.50;64.50
1996;DHT22;38556;47.068;15.408;2023-11-18T06:05:06;6.90;63.70
1996;DHT22;38556;47.068;15.408;2023-11-18T06:07:35;6.10;65.80
1996;DHT22;38556;47.068;15.408;2023-11-18T06:10:02;5.60;68.70
1996;DHT22;38556;47.068;15.408;2023-11-18T06:12:31;5.90;68.20
1996;DHT22;38556;47.068;15.408;2023-11-18T06:14:59;6.30;67.70
1996;DHT22;38556;47.068;15.408;2023-11-18T06:17:26;6.80;66.10
1996;DHT22;38556;47.068;15.408;2023-11-18T06:19:54;6.70;64.30
1996;DHT22;38556;47.068;15.408;2023-11-18T06:22:21;6.60;65.20
1996;DHT22;38556;47.068;15.408;2023-11-18T06:24:50;6.60;64.60
1996;DHT22;38556;47.068;15.408;2023-11-18T06:27:18;6.60;65.60
1996;DHT22;38556;47.068;15.408;2023-11-18T06:29:49;6.60;65.40
1996;DHT22;38556;47.068;15.408;2023-11-18T06:32:20;7.00;65.90
1996;DHT22;38556;47.068;15.408;2023-11-18T06:34:48;6.90;65.50
1996;DHT22;38556;47.068;15.408;2023-11-18T06:37:16;6.50;65.70
1996;DHT22;38556;47.068;15.408;2023-11-18T06:39:43;7.10;66.30
1996;DHT22;38556;47.068;15.408;2023-11-18T06:42:14;7.00;65.50
1996;DHT22;38556;47.068;15.408;2023-11-18T06:44:41;7.50;65.50
1996;DHT22;38556;47.068;15.408;2023-11-18T06:47:10;7.00;65.10
1996;DHT22;38556;47.068;15.408;2023-11-18T06:49:38;6.90;65.40
1996;DHT22;38556;47.068;15.408;2023-11-18T06:52:07;6.20;68.30
1996;DHT22;38556;47.068;15.408;2023-11-18T06:54:37;6.20;69.10
1996;DHT22;38556;47.068;15.408;2023-11-18T06:57:05;7.00;67.90
1996;DHT22;38556;47.068;15.408;2023-11-18T06:59:34;7.10;68.50
1996;DHT22;38556;47.068;15.408;2023-11-18T07:02:01;7.50;66.80
1996;DHT22;38556;47.068;15.408;2023-11-18T07:04:32;7.50;67.30
1996;DHT22;38556;47.068;15.408;2023-11-18T07:06:59;7.20;65.80
1996;DHT22;38556;47.068;15.408;2023-11-18T07:09:28;7.20;66.70
1996;DHT22;38556;47.068;15.408;2023-11-18T07:11:55;7.20;66.60
1996;DHT22;38556;47.068;15.408;2023-11-18T07:14:22;7.50;66.80
1996;DHT22;38556;47.068;15.408;2023-11-18T07:16:53;6.80;68.20
1996;DHT22;38556;47.068;15.408;2023-11-18T07:19:20;7.00;68.30
1996;DHT22;38556;47.068;15.408;2023-11-18T07:21:47;7.60;67.70
1996;DHT22;38556;47.068;15.408;2023-11-18T07:24:15;7.50;67.30
1996;DHT22;38556;47.068;15.408;2023-11-18T07:26:42;7.90;67.40
1996;DHT22;38556;47.068;15.408;2023-11-18T07:29:11;8.30;65.80
1996;DHT22;38556;47.068;15.408;2023-11-18T07:31:38;8.50;65.00
1996;DHT22;38556;47.068;15.408;2023-11-18T07:34:07;8.70;64.50
1996;DHT22;38556;47.068;15.408;2023-11-18T07:36:34;8.80;64.10
1996;DHT22;38556;47.068;15.408;2023-11-18T07:39:01;8.80;63.40
1996;DHT22;38556;47.068;15.408;2023-11-18T07:41:31;8.80;62.90
1996;DHT22;38556;47.068;15.408;2023-11-18T07:43:58;8.70;63.20
1996;DHT22;38556;47.068;15.408;2023-11-18T07:51:25;8.50;61.80
1996;DHT22;38556;47.068;15.408;2023-11-18T07:53:52;7.90;62.80
1996;DHT22;38556;47.068;15.408;2023-11-18T07:56:20;8.00;63.40
1996;DHT22;38556;47.068;15.408;2023-11-18T07:58:48;8.10;64.10
1996;DHT22;38556;47.068;15.408;2023-11-18T08:01:17;8.40;63.60
1996;DHT22;38556;47.068;15.408;2023-11-18T08:06:16;7.80;63.40
1996;DHT22;38556;47.068;15.408;2023-11-18T08:08:45;11.80;68.70
1996;DHT22;38556;47.068;15.408;2023-11-18T08:11:14;8.10;65.80
1996;DHT22;38556;47.068;15.408;2023-11-18T08:13:41;7.90;66.00
1996;DHT22;38556;47.068;15.408;2023-11-18T08:16:10;8.20;65.90
1996;DHT22;38556;47.068;15.408;2023-11-18T08:18:38;7.90;64.90
1996;DHT22;38556;47.068;15.408;2023-11-18T08:21:05;7.70;64.60
1996;DHT22;38556;47.068;15.408;2023-11-18T08:23:34;7.40;65.00
1996;DHT22;38556;47.068;15.408;2023-11-18T08:26:03;7.40;65.30
1996;DHT22;38556;47.068;15.408;2023-11-18T08:30:59;7.10;65.60
1996;DHT22;38556;47.068;15.408;2023-11-18T08:33:26;7.10;67.90
1996;DHT22;38556;47.068;15.408;2023-11-18T08:35:54;7.30;66.70
1996;DHT22;38556;47.068;15.408;2023-11-18T08:38:23;7.30;66.30
1996;DHT22;38556;47.068;15.408;2023-11-18T08:40:50;7.60;66.60
1996;DHT22;38556;47.068;15.408;2023-11-18T08:43:19;7.40;66.30
1996;DHT22;38556;47.068;15.408;2023-11-18T08:50:44;7.50;65.40
1996;DHT22;38556;47.068;15.408;2023-11-18T08:55:44;7.70;64.80
1996;DHT22;38556;47.068;15.408;2023-11-18T09:00:49;7.60;65.20
1996;DHT22;38556;47.068;15.408;2023-11-18T09:03:19;7.60;65.10
1996;DHT22;38556;47.068;15.408;2023-11-18T09:05:55;7.60;64.90
1996;DHT22;38556;47.068;15.408;2023-11-18T09:08:31;7.20;65.80
1996;DHT22;38556;47.068;15.408;2023-11-18T09:13:31;7.20;66.50
1996;DHT22;38556;47.068;15.408;2023-11-18T09:16:03;7.80;66.00
1996;DHT22;38556;47.068;15.408;2023-11-18T09:18:34;8.20;64.80
1996;DHT22;38556;47.068;15.408;2023-11-18T09:21:02;8.60;64.20
1996;DHT22;38556;47.068;15.408;2023-11-18T09:23:32;8.70;63.20
1996;DHT22;38556;47.068;15.408;2023-11-18T09:26:01;8.80;63.70
1996;DHT22;38556;47.068;15.408;2023-11-18T09:28:33;9.20;63.30
1996;DHT22;38556;47.068;15.408;2023-11-18T09:31:03;9.40;62.60
1996;DHT22;38556;47.068;15.408;2023-11-18T09:35:59;8.60;62.90
1996;DHT22;38556;47.068;15.408;2023-11-18T09:40:56;8.30;65.00
1996;DHT22;38556;47.068;15.408;2023-11-18T09:43:28;8.30;64.80
1996;DHT22;38556;47.068;15.408;2023-11-18T09:46:06;8.90;64.30
1996;DHT22;38556;47.068;15.408;2023-11-18T09:48:42;8.80;64.00
1996;DHT22;38556;47.068;15.408;2023-11-18T09:51:15;8.90;64.60
1996;DHT22;38556;47.068;15.408;2023-11-18T09:53:45;9.30;64.10
1996;DHT22;38556;47.068;15.408;2023-11-18T09:56:19;9.20;64.30
1996;DHT22;38556;47.068;15.408;2023-11-18T09:59:03;9.10;65.00
1996;DHT22;38556;47.068;15.408;2023-11-18T10:01:38;9.10;64.70
1996;DHT22;38556;47.068;15.408;2023-11-18T10:04:05;9.40;64.00
1996;DHT22;38556;47.068;15.408;2023-11-18T10:06:35;9.70;63.20
1996;DHT22;38556;47.068;15.408;2023-11-18T10:09:06;9.70;62.90
1996;DHT22;38556;47.068;15.408;2023-11-18T10:14:13;9.40;62.60
1996;DHT22;38556;47.068;15.408;2023-11-18T10:16:44;10.80;63.70
1996;DHT22;38556;47.068;15.408;2023-11-18T10:19:14;9.20;63.10
1996;DHT22;38556;47.068;15.408;2023-11-18T10:21:43;9.40;62.50
1996;DHT22;38556;47.068;15.408;2023-11-18T10:24:15;9.50;62.40
1996;DHT22;38556;47.068;15.408;2023-11-18T10:26:53;9.40;62.00
1996;DHT22;38556;47.068;15.408;2023-11-18T10:29:23;9.70;62.90
1996;DHT22;38556;47.068;15.408;2023-11-18T10:32:03;10.00;60.10
1996;DHT22;38556;47.068;15.408;2023-11-18T10:34:34;9.80;62.10
1996;DHT22;38556;47.068;15.408;2023-11-18T10:37:02;10.00;60.30
1996;DHT22;38556;47.068;15.408;2023-11-18T10:39:29;10.20;60.40
1996;DHT22;38556;47.068;15.408;2023-11-18T10:42:02;10.20;58.10
1996;DHT22;38556;47.068;15.408;2023-11-18T10:44:29;10.10;58.20
1996;DHT22;38556;47.068;15.408;2023-11-18T10:46:59;10.30;58.70
1996;DHT22;38556;47.068;15.408;2023-11-18T10:49:27;10.40;58.10
1996;DHT22;38556;47.068;15.408;2023-11-18T10:51:56;10.20;57.70
1996;DHT22;38556;47.068;15.408;2023-11-18T10:54:23;10.30;58.00
1996;DHT22;38556;47.068;15.408;2023-11-18T10:56:53;10.20;57.60
1996;DHT22;38556;47.068;15.408;2023-11-18T10:59:24;10.40;57.10
1996;DHT22;38556;47.068;15.408;2023-11-18T11:01:53;10.50;56.00
1996;DHT22;38556;47.068;15.408;2023-11-18T11:04:25;10.30;56.40
1996;DHT22;38556;47.068;15.408;2023-11-18T11:06:52;10.70;56.40
1996;DHT22;38556;47.068;15.408;2023-11-18T11:09:23;11.10;56.50
1996;DHT22;38556;47.068;15.408;2023-11-18T11:11:54;11.30;55.40
1996;DHT22;38556;47.068;15.408;2023-11-18T11:14:27;11.50;55.40
1996;DHT22;38556;47.068;15.408;2023-11-18T11:17:05;11.30;54.80
1996;DHT22;38556;47.068;15.408;2023-11-18T11:19:50;11.30;55.90
1996;DHT22;38556;47.068;15.408;2023-11-18T11:22:25;11.30;55.90
1996;DHT22;38556;47.068;15.408;2023-11-18T11:25:05;11.40;55.00
1996;DHT22;38556;47.068;15.408;2023-11-18T11:27:47;11.50;55.40
1996;DHT22;38556;47.068;15.408;2023-11-18T11:30:22;11.60;55.70
1996;DHT22;38556;47.068;15.408;2023-11-18T11:32:52;11.60;56.30
1996;DHT22;38556;47.068;15.408;2023-11-18T11:35:23;11.60;56.70
1996;DHT22;38556;47.068;15.408;2023-11-18T11:37:52;12.30;55.70
1996;DHT22;38556;47.068;15.408;2023-11-18T11:40:24;12.30;53.50
1996;DHT22;38556;47.068;15.408;2023-11-18T11:42:56;12.10;53.20
1996;DHT22;38556;47.068;15.408;2023-11-18T11:45:24;12.20;54.20
1996;DHT22;38556;47.068;15.408;2023-11-18T11:47:55;12.00;53.10
1996;DHT22;38556;47.068;15.408;2023-11-18T11:50:53;11.90;53.50
1996;DHT22;38556;47.068;15.408;2023-11-18T11:53:24;11.60;52.90
1996;DHT22;38556;47.068;15.408;2023-11-18T11:55:55;12.00;53.30
1996;DHT22;38556;47.068;15.408;2023-11-18T11:58:31;12.20;53.50
1996;DHT22;38556;47.068;15.408;2023-11-18T12:01:00;11.90;52.50
1996;DHT22;38556;47.068;15.408;2023-11-18T12:03:39;11.60;52.50
1996;DHT22;38556;47.068;15.408;2023-11-18T12:06:10;11.60;52.80
1996;DHT22;38556;47.068;15.408;2023-11-18T12:08:42;11.80;52.60
1996;DHT22;38556;47.068;15.408;2023-11-18T12:11:10;11.90;52.30
1996;DHT22;38556;47.068;15.408;2023-11-18T12:13:38;12.00;51.80
1996;DHT22;38556;47.068;15.408;2023-11-18T12:16:11;12.00;53.30
1996;DHT22;38556;47.068;15.408;2023-11-18T12:18:42;11.70;52.30
1996;DHT22;38556;47.068;15.408;2023-11-18T12:21:11;11.90;52.90
1996;DHT22;38556;47.068;15.408;2023-11-18T12:24:14;12.30;52.50
1996;DHT22;38556;47.068;15.408;2023-11-18T12:26:46;12.30;52.90
1996;DHT22;38556;47.068;15.408;2023-11-18T12:29:32;13.00;84.80
1996;DHT22;38556;47.068;15.408;2023-11-18T12:32:00;14.30;99.90
1996;DHT22;38556;47.068;15.408;2023-11-18T12:34:49;14.30;99.90
1996;DHT22;38556;47.068;15.408;2023-11-18T12:37:49;14.90;91.30
1996;DHT22;38556;47.068;15.408;2023-11-18T12:40:52;15.30;81.60
1996;DHT22;38556;47.068;15.408;2023-11-18T12:49:03;15.60;51.20
1996;DHT22;38556;47.068;15.408;2023-11-18T12:51:32;15.60;52.00
1996;DHT22;38556;47.068;15.408;2023-11-18T12:54:03;15.30;50.20
1996;DHT22;38556;47.068;15.408;2023-11-18T12:56:33;13.80;48.00
1996;DHT22;38556;47.068;15.408;2023-11-18T12:59:01;12.10;49.20
1996;DHT22;38556;47.068;15.408;2023-11-18T13:01:33;13.00;51.10
1996;DHT22;38556;47.068;15.408;2023-11-18T13:04:02;13.40;50.60
1996;DHT22;38556;47.068;15.408;2023-11-18T13:06:30;13.50;50.30
1996;DHT22;38556;47.068;15.408;2023-11-18T13:08:57;13.00;49.70
1996;DHT22;38556;47.068;15.408;2023-11-18T13:11:27;13.30;50.60
1996;DHT22;38556;47.068;15.408;2023-11-18T13:13:55;13.40;51.70
1996;DHT22;38556;47.068;15.408;2023-11-18T13:16:24;13.60;51.70
1996;DHT22;38556;47.068;15.408;2023-11-18T13:18:51;13.90;51.10
1996;DHT22;38556;47.068;15.408;2023-11-18T13:23:52;13.50;49.80
1996;DHT22;38556;47.068;15.408;2023-11-18T13:26:21;12.40;49.30
1996;DHT22;38556;47.068;15.408;2023-11-18T13:28:50;12.40;50.50
1996;DHT22;38556;47.068;15.408;2023-11-18T13:31:17;12.80;51.20
1996;DHT22;38556;47.068;15.408;2023-11-18T13:33:47;13.00;50.00
1996;DHT22;38556;47.068;15.408;2023-11-18T13:36:14;13.50;50.50
1996;DHT22;38556;47.068;15.408;2023-11-18T13:38:42;13.80;51.20
1996;DHT22;38556;47.068;15.408;2023-11-18T13:43:43;13.00;49.70
1996;DHT22;38556;47.068;15.408;2023-11-18T13:46:14;12.40;50.00
1996;DHT22;38556;47.068;15.408;2023-11-18T13:48:42;12.10;51.10
1996;DHT22;38556;47.068;15.408;2023-11-18T13:51:15;12.10;50.70
1996;DHT22;38556;47.068;15.408;2023-11-18T13:53:45;11.90;51.40
1996;DHT22;38556;47.068;15.408;2023-11-18T13:56:14;12.10;51.00
1996;DHT22;38556;47.068;15.408;2023-11-18T13:58:42;11.80;51.50
1996;DHT22;38556;47.068;15.408;2023-11-18T14:03:40;12.10;49.90
1996;DHT22;38556;47.068;15.408;2023-11-18T14:06:10;11.60;50.00
1996;DHT22;38556;47.068;15.408;2023-11-18T14:08:38;10.70;51.10
1996;DHT22;38556;47.068;15.408;2023-11-18T14:11:07;10.50;51.50
1996;DHT22;38556;47.068;15.408;2023-11-18T14:13:35;10.10;51.70
1996;DHT22;38556;47.068;15.408;2023-11-18T14:16:04;10.20;52.30
1996;DHT22;38556;47.068;15.408;2023-11-18T14:18:35;10.30;52.20
1996;DHT22;38556;47.068;15.408;2023-11-18T14:21:05;10.10;52.60
1996;DHT22;38556;47.068;15.408;2023-11-18T14:30:56;9.90;53.40
1996;DHT22;38556;47.068;15.408;2023-11-18T14:35:52;9.50;54.00
1996;DHT22;38556;47.068;15.408;2023-11-18T14:38:20;9.60;54.60
1996;DHT22;38556;47.068;15.408;2023-11-18T14:43:15;9.90;53.80
1996;DHT22;38556;47.068;15.408;2023-11-18T14:45:43;10.20;52.80
1996;DHT22;38556;47.068;15.408;2023-11-18T14:48:11;10.20;52.40
1996;DHT22;38556;47.068;15.408;2023-11-18T14:50:39;10.20;52.60
1996;DHT22;38556;47.068;15.408;2023-11-18T14:53:06;9.70;53.50
1996;DHT22;38556;47.068;15.408;2023-11-18T14:55:35;9.60;54.30
1996;DHT22;38556;47.068;15.408;2023-11-18T14:58:02;9.50;54.60
1996;DHT22;38556;47.068;15.408;2023-11-18T15:00:31;9.30;55.00
1996;DHT22;38556;47.068;15.408;2023-11-18T15:05:27;8.90;55.20
1996;DHT22;38556;47.068;15.408;2023-11-18T15:07:55;8.90;55.50
1996;DHT22;38556;47.068;15.408;2023-11-18T15:10:25;8.80;55.50
1996;DHT22;38556;47.068;15.408;2023-11-18T15:12:56;8.70;55.90
1996;DHT22;38556;47.068;15.408;2023-11-18T15:15:24;8.60;56.20
1996;DHT22;38556;47.068;15.408;2023-11-18T15:17:58;8.60;56.50
1996;DHT22;38556;47.068;15.408;2023-11-18T15:20:29;8.50;56.80
1996;DHT22;38556;47.068;15.408;2023-11-18T15:22:56;8.40;56.80
1996;DHT22;38556;47.068;15.408;2023-11-18T15:27:53;8.50;56.80
1996;DHT22;38556;47.068;15.408;2023-11-18T15:30:23;8.50;57.10
1996;DHT22;38556;47.068;15.408;2023-11-18T15:35:19;8.50;57.10
1996;DHT22;38556;47.068;15.408;2023-11-18T15:40:16;8.30;57.30
1996;DHT22;38556;47.068;15.408;2023-11-18T15:42:47;8.30;57.30
1996;DHT22;38556;47.068;15.408;2023-11-18T15:45:16;8.30;57.10
1996;DHT22;38556;47.068;15.408;2023-11-18T15:47:45;8.20;57.10
1996;DHT22;38556;47.068;15.408;2023-11-18T15:50:15;8.20;57.40
1996;DHT22;38556;47.068;15.408;2023-11-18T15:52:43;8.20;57.50
1996;DHT22;38556;47.068;15.408;2023-11-18T15:55:11;8.10;57.60
1996;DHT22;38556;47.068;15.408;2023-11-18T15:57:40;8.20;57.70
1996;DHT22;38556;47.068;15.408;2023-11-18T16:02:41;8.20;57.60
1996;DHT22;38556;47.068;15.408;2023-11-18T16:05:12;8.10;57.50
1996;DHT22;38556;47.068;15.408;2023-11-18T16:07:42;8.20;57.90
1996;DHT22;38556;47.068;15.408;2023-11-18T16:12:44;8.20;57.70
1996;DHT22;38556;47.068;15.408;2023-11-18T16:15:13;8.30;57.70
1996;DHT22;38556;47.068;15.408;2023-11-18T16:17:42;8.30;57.60
1996;DHT22;38556;47.068;15.408;2023-11-18T16:20:13;8.30;57.30
1996;DHT22;38556;47.068;15.408;2023-11-18T16:22:42;8.30;57.50
1996;DHT22;38556;47.068;15.408;2023-11-18T16:25:13;8.20;57.40
1996;DHT22;38556;47.068;15.408;2023-11-18T16:27:44;8.20;57.70
1996;DHT22;38556;47.068;15.408;2023-11-18T16:30:12;8.20;58.00
1996;DHT22;38556;47.068;15.408;2023-11-18T16:32:40;8.20;57.90
1996;DHT22;38556;47.068;15.408;2023-11-18T16:35:08;8.20;57.90
1996;DHT22;38556;47.068;15.408;2023-11-18T16:37:39;8.20;58.00
1996;DHT22;38556;47.068;15.408;2023-11-18T16:40:08;8.10;58.10
1996;DHT22;38556;47.068;15.408;2023-11-18T16:42:40;8.00;58.30
1996;DHT22;38556;47.068;15.408;2023-11-18T16:45:08;8.00;58.60
1996;DHT22;38556;47.068;15.408;2023-11-18T16:47:35;7.90;58.60
1996;DHT22;38556;47.068;15.408;2023-11-18T16:50:04;8.00;58.70
1996;DHT22;38556;47.068;15.408;2023-11-18T16:52:31;7.90;58.60
1996;DHT22;38556;47.068;15.408;2023-11-18T16:55:00;7.90;58.60
1996;DHT22;38556;47.068;15.408;2023-11-18T16:59:55;7.90;58.80
1996;DHT22;38556;47.068;15.408;2023-11-18T17:09:46;8.00;58.20
1996;DHT22;38556;47.068;15.408;2023-11-18T17:17:11;8.00;57.90
1996;DHT22;38556;47.068;15.408;2023-11-18T17:24:33;8.10;57.70
1996;DHT22;38556;47.068;15.408;2023-11-18T17:27:00;8.10;57.90
1996;DHT22;38556;47.068;15.408;2023-11-18T17:29:31;8.00;57.70
1996;DHT22;38556;47.068;15.408;2023-11-18T17:31:58;8.00;57.70
1996;DHT22;38556;47.068;15.408;2023-11-18T17:34:25;8.00;57.70
1996;DHT22;38556;47.068;15.408;2023-11-18T17:36:54;8.10;57.80
1996;DHT22;38556;47.068;15.408;2023-11-18T17:39:22;8.10;57.40
1996;DHT22;38556;47.068;15.408;2023-11-18T17:44:18;8.10;57.70
1996;DHT22;38556;47.068;15.408;2023-11-18T17:46:47;8.10;57.80
1996;DHT22;38556;47.068;15.408;2023-11-18T17:49:14;8.10;58.00
1996;DHT22;38556;47.068;15.408;2023-11-18T17:51:41;8.30;57.90
1996;DHT22;38556;47.068;15.408;2023-11-18T17:54:11;8.50;58.50
1996;DHT22;38556;47.068;15.408;2023-11-18T17:56:38;8.70;58.30
1996;DHT22;38556;47.068;15.408;2023-11-18T17:59:06;8.80;57.70